Hartford, Connecticut
Traffic Map
Current Weather Conditions
Hartford, Connecticut
Clear
Clear
56°
Feels Like: 56°
Wind Chill: 56° Ceiling: Unl
Heat Index: 56° Visibility: 10mi
Dew Point: 29° Wind: 8mph
Humidity: 36% Direction: 190° (S)
Pressure: 30.12in Gusts: 0mph
Raw Report DataKHFD 232053Z 19007KT 10SM CLR 13/M02 A3012 RMK AO2 SLP198 T01331017 55002
Traffic Incident Summary
Active as of:
Severity:
Category:
InformationThere was an issue retrieving the traffic information for this location. Please try a different location or try again shortly.
Advertisements
Track Severe Weather on mobile